createdAt,value
2022-11-23T00:00:29.611Z,40.30
2022-11-23T00:10:35.308Z,39.80
2022-11-23T00:20:42.939Z,29.30
2022-11-23T00:30:52.308Z,35.50
2022-11-23T00:41:02.510Z,34.80
2022-11-23T00:51:11.238Z,39.50
2022-11-23T01:01:18.363Z,38.30
2022-11-23T01:11:25.361Z,35.00
2022-11-23T01:31:40.526Z,32.60
2022-11-23T01:41:48.783Z,31.10
2022-11-23T01:51:58.932Z,30.40
2022-11-23T02:02:05.538Z,29.70
2022-11-23T02:12:13.733Z,34.00
2022-11-23T02:22:27.821Z,29.90
2022-11-23T02:32:35.564Z,29.90
2022-11-23T02:42:41.906Z,28.80
2022-11-23T02:52:47.504Z,30.10
2022-11-23T03:02:53.059Z,33.50
2022-11-23T03:12:59.143Z,27.20
2022-11-23T03:23:04.665Z,37.40
2022-11-23T03:33:10.276Z,35.50
2022-11-23T03:43:16.323Z,36.50
2022-11-23T03:53:22.085Z,38.50
2022-11-23T04:03:27.803Z,32.20
2022-11-23T04:13:33.414Z,32.60
2022-11-23T04:23:39.455Z,34.00
2022-11-23T04:33:45.185Z,38.40
2022-11-23T04:43:51.855Z,32.00
2022-11-23T04:53:57.433Z,35.60
2022-11-23T05:04:03.101Z,40.30
2022-11-23T05:14:08.756Z,39.60
2022-11-23T05:24:14.677Z,38.90
2022-11-23T05:34:20.504Z,41.00
2022-11-23T05:44:26.099Z,39.90
2022-11-23T05:54:31.723Z,41.20
2022-11-23T06:04:37.309Z,35.80
2022-11-23T06:14:43.065Z,33.50
2022-11-23T06:24:48.652Z,27.90
2022-11-23T06:34:59.368Z,21.10
2022-11-23T06:45:08.133Z,22.20
2022-11-23T06:55:13.746Z,18.60
2022-11-23T07:05:19.515Z,26.20
2022-11-23T07:15:25.113Z,24.40
2022-11-23T07:25:31.143Z,26.60
2022-11-23T07:35:37.603Z,23.00
2022-11-23T07:55:47.953Z,24.40
2022-11-23T08:05:53.682Z,23.40
2022-11-23T08:15:59.284Z,28.60
2022-11-23T08:26:12.012Z,30.80
2022-11-23T08:36:20.336Z,30.30
2022-11-23T08:46:25.878Z,26.70
2022-11-23T08:56:31.508Z,22.40
2022-11-23T09:06:37.413Z,27.40
2022-11-23T09:16:42.972Z,25.30
2022-11-23T09:26:48.897Z,23.30
2022-11-23T09:36:54.466Z,23.70
2022-11-23T09:47:17.417Z,28.00
2022-11-23T09:57:26.213Z,25.40
2022-11-23T10:07:48.417Z,23.40
2022-11-23T10:18:15.202Z,22.00
2022-11-23T10:28:24.028Z,22.00
2022-11-23T10:38:30.421Z,18.90
2022-11-23T10:48:38.100Z,21.80
2022-11-23T10:58:47.278Z,21.20
2022-11-23T11:08:55.515Z,18.90
2022-11-23T11:19:01.746Z,23.50
2022-11-23T11:29:10.010Z,16.70
2022-11-23T11:39:21.775Z,21.70
2022-11-23T11:49:31.456Z,15.30
2022-11-23T11:59:43.712Z,18.90
2022-11-23T12:09:52.058Z,21.60
2022-11-23T12:20:06.696Z,25.20
2022-11-23T12:30:26.205Z,24.90
2022-11-23T12:40:58.196Z,23.70
2022-11-23T12:51:14.781Z,25.50
2022-11-23T13:01:30.601Z,19.70
2022-11-23T13:11:58.450Z,27.70
2022-11-23T13:22:07.129Z,29.10
2022-11-23T13:32:47.955Z,32.00
2022-11-23T13:42:55.435Z,23.60
2022-11-23T14:03:39.823Z,34.20
2022-11-23T14:13:52.935Z,31.60
2022-11-23T14:24:38.899Z,33.00
2022-11-23T14:34:55.684Z,26.70
2022-11-23T14:45:14.315Z,35.00
2022-11-23T14:55:22.733Z,29.40
2022-11-23T15:05:32.272Z,33.40
2022-11-23T15:15:39.650Z,35.10
2022-11-23T15:25:54.783Z,36.90
2022-11-23T15:36:00.452Z,41.80
2022-11-23T15:46:14.394Z,35.60
2022-11-23T15:56:28.289Z,38.70
2022-11-23T16:06:41.461Z,33.10
2022-11-23T16:16:49.242Z,36.20
2022-11-23T16:26:55.151Z,36.20
2022-11-23T16:37:03.963Z,56.20
2022-11-23T16:47:28.350Z,54.40
2022-11-23T16:57:36.187Z,44.40
2022-11-23T17:07:41.846Z,48.40
2022-11-23T17:17:47.649Z,64.20
2022-11-23T17:27:53.451Z,60.80
2022-11-23T17:37:59.078Z,63.30
2022-11-23T17:48:05.257Z,61.60
2022-11-23T17:58:12.608Z,64.50
2022-11-23T18:08:18.218Z,59.10
2022-11-23T18:18:24.094Z,52.70
2022-11-23T18:28:30.406Z,46.50
2022-11-23T18:38:36.897Z,50.40
2022-11-23T18:58:48.431Z,48.10
2022-11-23T19:08:56.890Z,47.00
2022-11-23T19:19:04.488Z,44.40
2022-11-23T19:29:10.047Z,46.30
2022-11-23T19:39:15.730Z,45.60
2022-11-23T19:49:21.550Z,41.10
2022-11-23T19:59:27.857Z,36.70
2022-11-23T20:09:33.915Z,37.10
2022-11-23T20:19:39.752Z,37.50
2022-11-23T20:29:45.511Z,36.80
2022-11-23T20:39:52.949Z,44.70
2022-11-23T20:49:58.582Z,44.10
2022-11-23T21:00:04.453Z,37.80
2022-11-23T21:10:31.297Z,34.50
2022-11-23T21:20:37.284Z,39.20
2022-11-23T21:30:43.861Z,35.60
2022-11-23T21:40:49.647Z,48.60
2022-11-23T21:51:03.126Z,42.50
2022-11-23T22:01:12.282Z,39.10
2022-11-23T22:11:20.440Z,45.20
2022-11-23T22:21:27.928Z,49.80
2022-11-23T22:31:34.435Z,49.60
2022-11-23T22:41:41.093Z,41.40
2022-11-23T23:01:51.109Z,39.10
2022-11-23T23:11:56.808Z,41.30
2022-11-23T23:22:02.532Z,39.80
2022-11-23T23:32:08.543Z,37.20
2022-11-23T23:42:14.343Z,42.20
2022-11-23T23:52:20.329Z,44.40
